createdAt,value
2023-04-25T00:01:23.804Z,3.28
2023-04-25T00:03:54.433Z,3.45
2023-04-25T00:06:23.224Z,3.25
2023-04-25T00:08:53.405Z,3.28
2023-04-25T00:11:21.396Z,3.70
2023-04-25T00:13:50.895Z,3.80
2023-04-25T00:16:19.458Z,3.25
2023-04-25T00:18:52.251Z,3.33
2023-04-25T00:21:20.861Z,3.40
2023-04-25T00:23:50.623Z,3.70
2023-04-25T00:26:21.867Z,3.78
2023-04-25T00:28:51.006Z,3.45
2023-04-25T00:31:19.056Z,3.90
2023-04-25T00:33:47.748Z,3.92
2023-04-25T00:36:16.635Z,3.60
2023-04-25T00:38:44.615Z,3.40
2023-04-25T00:41:12.797Z,3.55
2023-04-25T00:43:42.616Z,3.38
2023-04-25T00:46:11.044Z,3.53
2023-04-25T00:48:39.094Z,3.22
2023-04-25T00:51:07.345Z,3.70
2023-04-25T00:53:36.418Z,3.53
2023-04-25T00:56:05.852Z,2.80
2023-04-25T00:58:33.994Z,3.25
2023-04-25T01:01:04.469Z,2.83
2023-04-25T01:03:36.802Z,3.58
2023-04-25T01:06:05.599Z,3.75
2023-04-25T01:08:34.035Z,3.13
2023-04-25T01:11:02.064Z,4.32
2023-04-25T01:13:30.758Z,3.17
2023-04-25T01:15:58.845Z,3.70
2023-04-25T01:18:31.241Z,3.35
2023-04-25T01:21:09.642Z,3.88
2023-04-25T01:23:37.870Z,3.67
2023-04-25T01:26:06.233Z,3.80
2023-04-25T01:28:35.786Z,3.72
2023-04-25T01:31:04.983Z,3.90
2023-04-25T01:33:33.468Z,3.83
2023-04-25T01:36:01.488Z,3.65
2023-04-25T01:38:32.017Z,3.33
2023-04-25T01:41:00.787Z,3.72
2023-04-25T01:43:30.938Z,3.70
2023-04-25T01:45:59.693Z,4.28
2023-04-25T01:48:30.118Z,4.30
2023-04-25T01:51:00.048Z,3.88
2023-04-25T01:53:30.038Z,4.72
2023-04-25T01:55:58.021Z,4.00
2023-04-25T01:58:25.949Z,4.20
2023-04-25T02:00:54.183Z,5.03
2023-04-25T02:03:22.229Z,4.70
2023-04-25T02:05:51.536Z,4.57
2023-04-25T02:08:19.993Z,4.75
2023-04-25T02:10:49.710Z,4.93
2023-04-25T02:13:18.353Z,4.88
2023-04-25T02:15:46.599Z,5.05
2023-04-25T02:18:17.024Z,5.53
2023-04-25T02:20:45.276Z,5.75
2023-04-25T02:23:14.077Z,5.93
2023-04-25T02:25:42.514Z,5.25
2023-04-25T02:28:13.563Z,5.90
2023-04-25T02:30:41.877Z,5.07
2023-04-25T02:33:11.641Z,6.15
2023-04-25T02:35:39.713Z,5.97
2023-04-25T02:38:09.934Z,5.93
2023-04-25T02:40:37.842Z,6.00
2023-04-25T02:43:07.098Z,6.63
2023-04-25T02:45:39.207Z,6.18
2023-04-25T02:48:07.998Z,6.93
2023-04-25T02:50:36.639Z,6.43
2023-04-25T02:53:04.928Z,5.85
2023-04-25T02:55:34.212Z,5.97
2023-04-25T02:58:02.958Z,6.72
2023-04-25T03:00:31.181Z,6.78
2023-04-25T03:03:00.786Z,6.70
2023-04-25T03:05:29.182Z,6.10
2023-04-25T03:07:57.796Z,6.47
2023-04-25T03:10:26.264Z,7.25
2023-04-25T03:12:54.722Z,7.03
2023-04-25T03:15:22.997Z,6.72
2023-04-25T03:17:51.335Z,6.45
2023-04-25T03:20:21.264Z,6.32
2023-04-25T03:22:49.433Z,5.93
2023-04-25T03:25:17.679Z,7.20
2023-04-25T03:27:46.012Z,6.60
2023-04-25T03:30:14.426Z,5.82
2023-04-25T03:32:42.882Z,5.60
2023-04-25T03:35:11.253Z,5.95
2023-04-25T03:37:41.823Z,5.75
2023-04-25T03:40:10.675Z,6.10
2023-04-25T03:42:38.917Z,5.53
2023-04-25T03:45:08.343Z,5.55
2023-04-25T03:47:36.282Z,5.78
2023-04-25T03:50:05.888Z,6.20
2023-04-25T03:52:34.614Z,6.85
2023-04-25T03:55:05.696Z,5.70
2023-04-25T03:57:33.846Z,5.95
2023-04-25T04:00:01.941Z,6.25
2023-04-25T04:02:31.900Z,5.55
2023-04-25T04:05:00.369Z,5.10
2023-04-25T04:07:28.609Z,5.80
2023-04-25T04:09:56.956Z,6.05
2023-04-25T04:12:26.403Z,5.70
2023-04-25T04:14:54.678Z,5.63
2023-04-25T04:17:23.022Z,6.43
2023-04-25T04:19:55.136Z,5.40
2023-04-25T04:22:23.365Z,6.15
2023-04-25T04:24:52.840Z,6.18
2023-04-25T04:27:22.619Z,6.25
2023-04-25T04:29:53.315Z,5.57
2023-04-25T04:32:21.601Z,6.05
2023-04-25T04:34:49.992Z,5.80
2023-04-25T04:37:18.772Z,5.68
2023-04-25T04:39:47.995Z,6.15
2023-04-25T04:42:16.650Z,6.20
2023-04-25T04:44:45.782Z,6.47
2023-04-25T04:47:15.867Z,6.40
2023-04-25T04:49:44.134Z,6.15
2023-04-25T04:52:12.381Z,6.00
2023-04-25T04:54:41.752Z,5.82
2023-04-25T04:57:09.875Z,5.18
2023-04-25T04:59:37.830Z,6.20
2023-04-25T05:02:06.456Z,6.15
2023-04-25T05:04:36.404Z,5.85
2023-04-25T05:07:04.529Z,6.45
2023-04-25T05:09:33.327Z,6.63
2023-04-25T05:12:02.024Z,7.82
2023-04-25T05:14:31.822Z,7.03
2023-04-25T05:17:00.654Z,7.03
2023-04-25T05:19:29.091Z,6.55
2023-04-25T05:21:58.703Z,6.55
2023-04-25T05:24:27.196Z,7.03
2023-04-25T05:26:55.155Z,7.10
2023-04-25T05:29:23.155Z,6.78
2023-04-25T05:31:51.321Z,6.07
2023-04-25T05:34:20.191Z,6.80
2023-04-25T05:36:52.495Z,7.50
2023-04-25T05:39:22.471Z,7.80
2023-04-25T05:41:50.648Z,6.78
2023-04-25T05:44:18.728Z,7.18
2023-04-25T05:46:46.837Z,6.70
2023-04-25T05:49:16.458Z,6.47
2023-04-25T05:51:46.641Z,6.63
2023-04-25T05:54:15.790Z,7.75
2023-04-25T05:56:45.952Z,7.05
2023-04-25T05:59:13.905Z,6.80
2023-04-25T06:01:42.231Z,7.03
2023-04-25T06:04:11.156Z,6.25
2023-04-25T06:06:39.361Z,6.40
2023-04-25T06:09:07.485Z,7.13
2023-04-25T06:11:35.462Z,6.53
2023-04-25T06:14:09.572Z,7.82
2023-04-25T06:16:37.776Z,7.40
2023-04-25T06:19:06.259Z,7.45
2023-04-25T06:21:34.488Z,7.80
2023-04-25T06:24:02.682Z,7.78
2023-04-25T06:26:30.790Z,8.32
2023-04-25T06:28:58.754Z,8.57
2023-04-25T06:31:30.572Z,7.82
2023-04-25T06:33:59.619Z,8.00
2023-04-25T06:36:28.843Z,9.45
2023-04-25T06:38:56.829Z,8.77
2023-04-25T06:41:25.134Z,8.30
2023-04-25T06:43:53.161Z,7.65
2023-04-25T06:46:21.832Z,8.10
2023-04-25T06:48:53.920Z,8.15
2023-04-25T06:51:24.167Z,8.90
2023-04-25T06:53:53.998Z,8.40
2023-04-25T06:56:24.472Z,7.72
2023-04-25T06:58:53.065Z,8.05
2023-04-25T07:01:21.224Z,8.20
2023-04-25T07:03:51.093Z,9.25
2023-04-25T07:06:19.445Z,9.02
2023-04-25T07:08:47.920Z,8.50
2023-04-25T07:11:16.109Z,9.18
2023-04-25T07:13:44.527Z,9.10
2023-04-25T07:16:12.796Z,8.48
2023-04-25T07:18:43.234Z,9.38
2023-04-25T07:21:12.973Z,9.18
2023-04-25T07:23:41.889Z,8.68
2023-04-25T07:26:10.660Z,7.43
2023-04-25T07:28:39.091Z,8.52
2023-04-25T07:31:07.801Z,7.20
2023-04-25T07:33:36.047Z,6.72
2023-04-25T07:36:04.173Z,7.97
2023-04-25T07:38:34.024Z,8.27
2023-04-25T07:41:02.285Z,6.93
2023-04-25T07:43:30.405Z,6.78
2023-04-25T07:45:59.057Z,6.18
2023-04-25T07:48:27.313Z,6.75
2023-04-25T07:50:55.636Z,6.60
2023-04-25T07:53:23.672Z,6.90
2023-04-25T07:55:53.704Z,6.25
2023-04-25T07:58:22.964Z,7.07
2023-04-25T08:00:51.703Z,6.85
2023-04-25T08:03:20.022Z,6.95
2023-04-25T08:05:49.240Z,6.60
2023-04-25T08:08:17.492Z,6.72
2023-04-25T08:10:46.426Z,6.82
2023-04-25T08:13:16.011Z,7.47
2023-04-25T08:15:44.336Z,7.20
2023-04-25T08:18:14.210Z,6.57
2023-04-25T08:20:43.728Z,7.22
2023-04-25T08:23:11.998Z,7.43
2023-04-25T08:25:40.309Z,7.00
2023-04-25T08:28:08.437Z,6.65
2023-04-25T08:30:38.950Z,6.75
2023-04-25T08:33:07.091Z,7.15
2023-04-25T08:35:36.679Z,8.63
2023-04-25T08:38:04.742Z,7.70
2023-04-25T08:40:40.992Z,8.18
2023-04-25T08:43:12.742Z,7.70
2023-04-25T08:45:43.703Z,7.43
2023-04-25T08:48:14.130Z,7.00
2023-04-25T08:50:45.953Z,7.38
2023-04-25T08:53:19.781Z,6.82
2023-04-25T08:55:48.634Z,7.22
2023-04-25T08:58:17.558Z,7.63
2023-04-25T09:00:49.008Z,7.60
2023-04-25T09:03:17.329Z,6.65
2023-04-25T09:05:46.399Z,7.13
2023-04-25T09:08:14.763Z,6.70
2023-04-25T09:10:43.378Z,6.10
2023-04-25T09:13:13.830Z,6.32
2023-04-25T09:15:52.526Z,5.85
2023-04-25T09:18:30.267Z,5.20
2023-04-25T09:21:13.136Z,5.43
2023-04-25T09:23:43.457Z,6.03
2023-04-25T09:26:11.691Z,6.40
2023-04-25T09:28:39.959Z,6.25
2023-04-25T09:31:13.104Z,5.85
2023-04-25T09:33:42.612Z,5.80
2023-04-25T09:36:13.288Z,6.00
2023-04-25T09:38:43.860Z,6.00
2023-04-25T09:41:13.038Z,5.72
2023-04-25T09:43:42.051Z,5.47
2023-04-25T09:46:13.500Z,5.15
2023-04-25T09:48:41.470Z,5.18
2023-04-25T09:51:12.485Z,5.30
2023-04-25T09:53:44.779Z,4.63
2023-04-25T09:56:14.480Z,5.28
2023-04-25T09:58:43.662Z,5.03
2023-04-25T10:01:15.148Z,4.85
2023-04-25T10:03:44.648Z,4.00
2023-04-25T10:06:16.775Z,4.32
2023-04-25T10:08:46.409Z,5.00
2023-04-25T10:11:16.997Z,4.90
2023-04-25T10:13:45.566Z,4.13
2023-04-25T10:16:15.505Z,4.05
2023-04-25T10:18:43.461Z,4.72
2023-04-25T10:21:13.033Z,4.32
2023-04-25T10:23:42.280Z,5.60
2023-04-25T10:26:13.772Z,5.30
2023-04-25T10:29:00.147Z,5.13
2023-04-25T10:31:31.984Z,4.55
2023-04-25T10:34:01.416Z,5.13
2023-04-25T10:36:34.064Z,5.38
2023-04-25T10:39:09.815Z,4.65
2023-04-25T10:41:55.319Z,5.28
2023-04-25T10:44:23.941Z,5.50
2023-04-25T10:46:53.317Z,5.57
2023-04-25T10:49:32.887Z,5.20
2023-04-25T10:52:22.473Z,5.40
2023-04-25T10:54:53.973Z,5.65
2023-04-25T10:57:40.682Z,5.53
2023-04-25T11:00:12.273Z,4.95
2023-04-25T11:02:46.588Z,4.72
2023-04-25T11:05:33.129Z,4.78
2023-04-25T11:08:08.297Z,5.40
2023-04-25T11:10:37.894Z,4.72
2023-04-25T11:13:06.620Z,5.40
2023-04-25T11:15:36.995Z,4.78
2023-04-25T11:18:08.195Z,4.88
2023-04-25T11:20:36.417Z,4.78
2023-04-25T11:25:39.187Z,4.88
2023-04-25T11:28:07.356Z,4.88
2023-04-25T11:30:35.567Z,4.20
2023-04-25T11:33:04.453Z,4.95
2023-04-25T11:35:34.752Z,4.68
2023-04-25T11:38:05.254Z,4.32
2023-04-25T11:40:33.943Z,4.95
2023-04-25T11:43:03.224Z,4.85
2023-04-25T11:45:32.230Z,4.18
2023-04-25T11:48:00.388Z,4.68
2023-04-25T11:50:30.794Z,5.07
2023-04-25T11:53:00.653Z,4.47
2023-04-25T11:55:32.425Z,4.72
2023-04-25T11:58:03.305Z,4.47
2023-04-25T12:00:31.379Z,4.38
2023-04-25T12:03:01.279Z,4.00
2023-04-25T12:05:34.424Z,3.97
2023-04-25T12:08:14.571Z,3.90
2023-04-25T12:10:44.728Z,4.10
2023-04-25T12:13:26.748Z,4.13
2023-04-25T12:15:57.670Z,4.30
2023-04-25T12:18:28.406Z,4.55
2023-04-25T12:20:57.408Z,4.90
2023-04-25T12:23:31.394Z,4.75
2023-04-25T12:25:59.805Z,4.40
2023-04-25T12:28:29.923Z,4.72
2023-04-25T12:30:59.772Z,4.60
2023-04-25T12:33:29.234Z,4.75
2023-04-25T12:35:58.445Z,4.45
2023-04-25T12:38:28.052Z,4.38
2023-04-25T12:40:57.579Z,3.78
2023-04-25T12:43:26.321Z,3.92
2023-04-25T12:45:56.273Z,3.75
2023-04-25T12:48:24.938Z,3.45
2023-04-25T12:50:54.202Z,3.55
2023-04-25T12:53:25.098Z,3.97
2023-04-25T12:58:24.878Z,3.90
2023-04-25T13:00:53.828Z,3.92
2023-04-25T13:03:23.068Z,3.75
2023-04-25T13:05:51.375Z,3.70
2023-04-25T13:08:19.644Z,3.78
2023-04-25T13:10:48.647Z,3.80
2023-04-25T13:13:17.517Z,3.50
2023-04-25T13:15:47.221Z,3.45
2023-04-25T13:18:16.086Z,3.15
2023-04-25T13:20:44.874Z,4.03
2023-04-25T13:23:13.337Z,3.70
2023-04-25T13:25:41.249Z,3.83
2023-04-25T13:28:11.979Z,4.18
2023-04-25T13:30:40.517Z,3.72
2023-04-25T13:33:11.581Z,4.43
2023-04-25T13:35:40.680Z,4.30
2023-04-25T13:38:09.855Z,4.30
2023-04-25T13:40:38.141Z,3.83
2023-04-25T13:43:07.469Z,4.00
2023-04-25T13:45:36.135Z,4.70
2023-04-25T13:48:04.420Z,4.50
2023-04-25T13:50:34.076Z,4.95
2023-04-25T13:53:02.101Z,4.47
2023-04-25T13:55:30.419Z,4.07
2023-04-25T13:57:58.549Z,4.65
2023-04-25T14:00:29.213Z,4.60
2023-04-25T14:02:57.662Z,4.35
2023-04-25T14:05:26.815Z,4.18
2023-04-25T14:07:56.384Z,4.93
2023-04-25T14:10:24.851Z,4.88
2023-04-25T14:12:53.110Z,4.75
2023-04-25T14:15:21.827Z,4.60
2023-04-25T14:17:51.106Z,4.95
2023-04-25T14:20:21.302Z,4.97
2023-04-25T14:22:50.209Z,4.22
2023-04-25T14:25:19.953Z,4.88
2023-04-25T14:27:50.710Z,4.93
2023-04-25T14:30:19.544Z,4.57
2023-04-25T14:32:47.691Z,4.47
2023-04-25T14:35:16.505Z,4.60
2023-04-25T14:37:44.965Z,4.30
2023-04-25T14:40:16.370Z,4.78
2023-04-25T14:42:46.305Z,4.80
2023-04-25T14:45:14.248Z,4.32
2023-04-25T14:47:42.897Z,4.80
2023-04-25T14:50:12.295Z,4.70
2023-04-25T14:52:40.564Z,4.90
2023-04-25T14:55:09.314Z,4.88
2023-04-25T14:57:37.657Z,5.90
2023-04-25T15:00:10.860Z,10.68
2023-04-25T15:02:39.388Z,5.25
2023-04-25T15:05:09.618Z,4.25
2023-04-25T15:07:37.608Z,3.83
2023-04-25T15:10:07.218Z,4.10
2023-04-25T15:12:35.537Z,4.30
2023-04-25T15:15:03.857Z,4.85
2023-04-25T15:17:33.453Z,4.00
2023-04-25T15:20:01.893Z,4.00
2023-04-25T15:22:31.855Z,4.63
2023-04-25T15:25:00.892Z,4.50
2023-04-25T15:27:30.254Z,4.40
2023-04-25T15:29:58.594Z,3.92
2023-04-25T15:32:28.374Z,4.03
2023-04-25T15:34:59.818Z,4.90
2023-04-25T15:37:30.184Z,4.50
2023-04-25T15:40:04.806Z,4.18
2023-04-25T15:42:33.316Z,4.53
2023-04-25T15:45:01.545Z,4.25
2023-04-25T15:47:30.209Z,4.07
2023-04-25T15:50:01.305Z,4.40
2023-04-25T15:52:30.966Z,4.10
2023-04-25T15:54:58.978Z,3.38
2023-04-25T15:57:27.527Z,3.25
2023-04-25T15:59:56.508Z,3.60
2023-04-25T16:02:25.188Z,3.30
2023-04-25T16:04:54.530Z,3.13
2023-04-25T16:07:24.052Z,2.95
2023-04-25T16:09:52.449Z,2.88
2023-04-25T16:12:21.057Z,3.17
2023-04-25T16:14:49.308Z,3.15
2023-04-25T16:17:18.743Z,3.03
2023-04-25T16:19:47.237Z,3.28
2023-04-25T16:22:16.487Z,2.95
2023-04-25T16:24:46.661Z,3.35
2023-04-25T16:27:16.156Z,2.97
2023-04-25T16:29:44.092Z,2.65
2023-04-25T16:32:15.659Z,2.90
2023-04-25T16:34:45.790Z,2.78
2023-04-25T16:37:14.437Z,2.97
2023-04-25T16:39:43.036Z,3.08
2023-04-25T16:42:12.579Z,2.70
2023-04-25T16:44:40.881Z,2.60
2023-04-25T16:47:09.374Z,2.80
2023-04-25T16:49:40.058Z,3.30
2023-04-25T16:52:08.112Z,3.40
2023-04-25T16:54:37.858Z,3.50
2023-04-25T16:57:07.047Z,2.50
2023-04-25T16:59:36.656Z,2.60
2023-04-25T17:02:08.311Z,2.55
2023-04-25T17:04:36.877Z,2.38
2023-04-25T17:07:05.780Z,2.00
2023-04-25T17:09:34.778Z,2.35
2023-04-25T17:12:03.640Z,2.53
2023-04-25T17:14:36.835Z,2.15
2023-04-25T17:17:09.398Z,2.63
2023-04-25T17:19:38.011Z,2.10
2023-04-25T17:22:06.740Z,1.98
2023-04-25T17:24:35.480Z,1.95
2023-04-25T17:27:03.765Z,2.25
2023-04-25T17:29:32.928Z,2.22
2023-04-25T17:32:01.270Z,2.10
2023-04-25T17:34:31.896Z,2.20
2023-04-25T17:37:00.231Z,1.85
2023-04-25T17:39:28.137Z,1.90
2023-04-25T17:41:57.627Z,1.92
2023-04-25T17:44:27.469Z,2.00
2023-04-25T17:46:55.535Z,2.38
2023-04-25T17:49:23.577Z,2.03
2023-04-25T17:51:52.910Z,2.25
2023-04-25T17:54:23.716Z,2.38
2023-04-25T17:56:52.978Z,2.15
2023-04-25T17:59:21.550Z,2.53
2023-04-25T18:01:51.087Z,2.60
2023-04-25T18:04:19.388Z,2.47
2023-04-25T18:06:47.849Z,2.22
2023-04-25T18:09:17.340Z,3.03
2023-04-25T18:11:46.783Z,2.47
2023-04-25T18:14:16.873Z,2.85
2023-04-25T18:16:48.521Z,2.17
2023-04-25T18:19:21.375Z,2.42
2023-04-25T18:21:50.779Z,2.58
2023-04-25T18:24:21.344Z,2.47
2023-04-25T18:26:54.514Z,3.38
2023-04-25T18:31:57.590Z,2.20
2023-04-25T18:34:27.468Z,2.15
2023-04-25T18:36:59.997Z,2.58
2023-04-25T18:39:29.794Z,3.07
2023-04-25T18:42:04.637Z,2.40
2023-04-25T18:44:39.421Z,2.47
2023-04-25T18:47:07.770Z,2.22
2023-04-25T18:49:35.748Z,2.50
2023-04-25T18:52:04.915Z,2.63
2023-04-25T18:54:35.029Z,2.65
2023-04-25T18:57:03.353Z,2.45
2023-04-25T18:59:31.556Z,3.22
2023-04-25T19:02:01.619Z,2.35
2023-04-25T19:04:29.977Z,2.25
2023-04-25T19:06:58.226Z,1.90
2023-04-25T19:09:26.424Z,2.42
2023-04-25T19:11:56.345Z,2.20
2023-04-25T19:14:24.489Z,5.03
2023-04-25T19:16:52.827Z,4.97
2023-04-25T19:19:21.852Z,5.13
2023-04-25T19:21:53.328Z,4.53
2023-04-25T19:24:22.078Z,3.65
2023-04-25T19:26:50.701Z,2.85
2023-04-25T19:29:20.892Z,2.75
2023-04-25T19:31:48.848Z,2.70
2023-04-25T19:34:16.870Z,3.15
2023-04-25T19:36:45.635Z,2.60
2023-04-25T19:39:13.943Z,3.00
2023-04-25T19:41:43.071Z,2.47
2023-04-25T19:44:11.564Z,2.70
2023-04-25T19:46:42.106Z,2.50
2023-04-25T19:49:11.507Z,2.88
2023-04-25T19:51:39.773Z,2.58
2023-04-25T19:54:07.978Z,2.85
2023-04-25T19:56:36.155Z,2.40
2023-04-25T19:59:04.294Z,2.03
2023-04-25T20:01:32.915Z,2.25
2023-04-25T20:04:03.320Z,2.45
2023-04-25T20:06:32.802Z,2.58
2023-04-25T20:09:01.456Z,2.50
2023-04-25T20:11:29.620Z,2.58
2023-04-25T20:13:58.305Z,2.35
2023-04-25T20:16:26.534Z,2.65
2023-04-25T20:18:55.339Z,2.65
2023-04-25T20:21:25.182Z,2.42
2023-04-25T20:23:55.380Z,2.35
2023-04-25T20:26:23.754Z,2.50
2023-04-25T20:28:53.221Z,2.33
2023-04-25T20:31:23.221Z,2.13
2023-04-25T20:33:51.297Z,2.80
2023-04-25T20:36:19.833Z,4.57
2023-04-25T20:38:49.753Z,4.05
2023-04-25T20:41:18.078Z,5.32
2023-04-25T20:43:47.175Z,4.60
2023-04-25T20:46:16.474Z,4.32
2023-04-25T20:48:44.585Z,4.43
2023-04-25T20:51:13.277Z,8.52
2023-04-25T20:53:41.748Z,6.30
2023-04-25T20:56:12.975Z,5.05
2023-04-25T20:58:41.421Z,5.88
2023-04-25T21:01:09.972Z,5.95
2023-04-25T21:03:38.453Z,6.30
2023-04-25T21:06:07.662Z,5.60
2023-04-25T21:08:37.344Z,4.82
2023-04-25T21:11:05.557Z,5.10
2023-04-25T21:13:34.992Z,5.18
2023-04-25T21:16:03.643Z,4.78
2023-04-25T21:18:32.029Z,5.15
2023-04-25T21:21:03.679Z,4.28
2023-04-25T21:23:32.153Z,4.60
2023-04-25T21:26:00.541Z,5.25
2023-04-25T21:28:28.962Z,4.68
2023-04-25T21:30:59.672Z,4.40
2023-04-25T21:33:27.710Z,4.53
2023-04-25T21:35:56.306Z,5.20
2023-04-25T21:38:24.297Z,4.50
2023-04-25T21:40:52.525Z,6.00
2023-04-25T21:43:21.520Z,5.38
2023-04-25T21:46:14.723Z,4.60
2023-04-25T21:48:40.349Z,5.55
2023-04-25T21:51:09.278Z,5.13
2023-04-25T21:53:37.661Z,4.53
2023-04-25T21:56:05.847Z,5.10
2023-04-25T21:58:33.884Z,5.18
2023-04-25T22:01:01.809Z,4.53
2023-04-25T22:03:30.125Z,5.13
2023-04-25T22:05:59.693Z,5.95
2023-04-25T22:08:27.879Z,4.25
2023-04-25T22:10:56.393Z,4.30
2023-04-25T22:13:28.501Z,4.15
2023-04-25T22:15:57.258Z,4.77
2023-04-25T22:18:25.372Z,4.93
2023-04-25T22:20:53.522Z,4.55
2023-04-25T22:23:22.789Z,5.00
2023-04-25T22:25:51.224Z,5.20
2023-04-25T22:28:19.137Z,5.20
2023-04-25T22:30:47.410Z,5.65
2023-04-25T22:33:15.340Z,5.28
2023-04-25T22:35:43.543Z,5.55
2023-04-25T22:38:11.723Z,5.97
2023-04-25T22:40:41.649Z,5.90
2023-04-25T22:43:09.643Z,6.38
2023-04-25T22:45:37.786Z,6.07
2023-04-25T22:48:06.784Z,6.65
2023-04-25T22:50:35.593Z,5.90
2023-04-25T22:53:04.366Z,5.57
2023-04-25T22:55:32.715Z,5.28
2023-04-25T22:58:02.564Z,5.80
2023-04-25T23:00:31.320Z,5.70
2023-04-25T23:03:00.620Z,5.22
2023-04-25T23:05:28.730Z,4.97
2023-04-25T23:07:57.625Z,5.53
2023-04-25T23:10:25.492Z,5.82
2023-04-25T23:12:54.751Z,5.72
2023-04-25T23:15:27.029Z,5.43
2023-04-25T23:17:55.702Z,6.30
2023-04-25T23:20:24.499Z,5.25
2023-04-25T23:22:52.971Z,5.88
2023-04-25T23:25:21.357Z,5.45
2023-04-25T23:27:49.638Z,5.68
2023-04-25T23:30:18.513Z,5.65
2023-04-25T23:32:50.676Z,5.30
2023-04-25T23:35:18.876Z,5.67
2023-04-25T23:37:49.027Z,5.40
2023-04-25T23:40:16.991Z,4.85
2023-04-25T23:42:45.153Z,5.25
2023-04-25T23:45:14.576Z,5.30
2023-04-25T23:47:43.275Z,4.75
2023-04-25T23:50:16.335Z,4.80
2023-04-25T23:52:44.312Z,4.00
2023-04-25T23:55:12.268Z,4.22
2023-04-25T23:57:40.199Z,4.03
